createdAt,value
2022-11-15T00:03:27.771Z,34.97
2022-11-15T00:05:54.709Z,37.25
2022-11-15T00:08:24.284Z,32.25
2022-11-15T00:10:58.583Z,38.77
2022-11-15T00:13:25.783Z,35.63
2022-11-15T00:15:52.827Z,43.13
2022-11-15T00:18:19.986Z,41.97
2022-11-15T00:20:46.902Z,40.83
2022-11-15T00:23:13.618Z,41.30
2022-11-15T00:25:40.395Z,46.28
2022-11-15T00:28:07.164Z,40.78
2022-11-15T00:30:34.047Z,53.20
2022-11-15T00:33:07.563Z,46.20
2022-11-15T00:35:35.314Z,41.35
2022-11-15T00:38:03.399Z,41.13
2022-11-15T00:40:30.378Z,43.53
2022-11-15T00:42:58.269Z,41.20
2022-11-15T00:45:25.453Z,44.03
2022-11-15T00:47:53.014Z,43.38
2022-11-15T00:50:20.122Z,48.17
2022-11-15T00:52:46.954Z,43.40
2022-11-15T00:55:18.478Z,45.03
2022-11-15T00:57:47.187Z,48.83
2022-11-15T01:00:14.482Z,40.10
2022-11-15T01:02:41.223Z,42.35
2022-11-15T01:05:09.043Z,38.70
2022-11-15T01:07:36.282Z,36.10
2022-11-15T01:10:03.601Z,43.30
2022-11-15T01:12:31.448Z,40.58
2022-11-15T01:14:58.270Z,37.05
2022-11-15T01:17:25.278Z,41.58
2022-11-15T01:19:52.029Z,38.90
2022-11-15T01:22:18.781Z,40.65
2022-11-15T01:24:45.458Z,36.40
2022-11-15T01:27:12.153Z,36.30
2022-11-15T01:29:38.917Z,42.40
2022-11-15T01:32:05.708Z,44.22
2022-11-15T01:34:32.356Z,37.10
2022-11-15T01:36:59.781Z,44.60
2022-11-15T01:39:27.401Z,40.78
2022-11-15T01:41:54.217Z,39.85
2022-11-15T01:44:35.829Z,39.13
2022-11-15T01:47:28.993Z,39.85
2022-11-15T01:49:58.402Z,47.20
2022-11-15T01:52:27.420Z,44.78
2022-11-15T01:55:18.068Z,48.47
2022-11-15T01:57:48.380Z,46.50
2022-11-15T02:00:15.453Z,36.58
2022-11-15T02:02:42.236Z,44.97
2022-11-15T02:05:09.121Z,42.72
2022-11-15T02:07:36.907Z,36.95
2022-11-15T02:10:12.786Z,37.13
2022-11-15T02:12:40.126Z,38.30
2022-11-15T02:15:08.434Z,40.85
2022-11-15T02:18:02.708Z,43.17
2022-11-15T02:21:03.480Z,35.13
2022-11-15T02:23:55.863Z,37.75
2022-11-15T02:26:28.184Z,39.95
2022-11-15T02:29:11.752Z,39.40
2022-11-15T02:31:52.753Z,39.05
2022-11-15T02:34:29.514Z,36.13
2022-11-15T02:37:16.249Z,37.53
2022-11-15T02:40:10.678Z,29.17
2022-11-15T02:43:08.631Z,35.28
2022-11-15T02:45:43.014Z,33.17
2022-11-15T02:48:11.100Z,34.47
2022-11-15T02:50:38.503Z,33.50
2022-11-15T02:53:05.231Z,33.78
2022-11-15T02:55:37.242Z,30.73
2022-11-15T02:58:25.014Z,32.83
2022-11-15T03:00:59.673Z,32.60
2022-11-15T03:03:47.238Z,34.58
2022-11-15T03:06:23.376Z,33.97
2022-11-15T03:08:59.350Z,30.88
2022-11-15T03:11:26.369Z,32.97
2022-11-15T03:14:30.373Z,30.70
2022-11-15T03:17:03.852Z,29.15
2022-11-15T03:19:41.320Z,30.80
2022-11-15T03:22:12.467Z,32.08
2022-11-15T03:24:39.789Z,29.02
2022-11-15T03:27:13.856Z,27.42
2022-11-15T03:29:48.115Z,29.27
2022-11-15T03:32:20.257Z,32.53
2022-11-15T03:35:24.931Z,28.77
2022-11-15T03:38:09.597Z,29.52
2022-11-15T03:40:48.937Z,31.02
2022-11-15T03:43:45.059Z,29.25
2022-11-15T03:46:25.312Z,24.52
2022-11-15T03:49:03.566Z,28.70
2022-11-15T03:51:30.964Z,27.95
2022-11-15T03:53:57.628Z,29.30
2022-11-15T03:56:24.290Z,30.50
2022-11-15T03:58:50.991Z,28.58
2022-11-15T04:01:17.780Z,28.40
2022-11-15T04:03:44.577Z,26.67
2022-11-15T04:06:11.281Z,28.55
2022-11-15T04:08:37.938Z,29.38
2022-11-15T04:11:04.675Z,28.90
2022-11-15T04:13:31.621Z,24.92
2022-11-15T04:15:58.528Z,23.65
2022-11-15T04:18:25.348Z,26.17
2022-11-15T04:21:10.713Z,28.25
2022-11-15T04:24:06.371Z,27.95
2022-11-15T04:26:33.461Z,27.08
2022-11-15T04:29:38.609Z,25.48
2022-11-15T04:32:07.193Z,25.90
2022-11-15T04:34:34.068Z,26.33
2022-11-15T04:37:12.926Z,24.35
2022-11-15T04:39:43.954Z,24.98
2022-11-15T04:42:11.207Z,23.60
2022-11-15T04:44:37.912Z,24.85
2022-11-15T04:47:04.954Z,22.42
2022-11-15T04:49:31.632Z,24.80
2022-11-15T04:51:58.442Z,24.40
2022-11-15T04:54:25.102Z,20.92
2022-11-15T04:56:51.752Z,25.42
2022-11-15T04:59:18.485Z,25.20
2022-11-15T05:01:45.482Z,26.60
2022-11-15T05:04:21.260Z,21.85
2022-11-15T05:06:49.687Z,23.83
2022-11-15T05:09:17.162Z,23.52
2022-11-15T05:11:43.983Z,25.83
2022-11-15T05:14:10.773Z,21.33
2022-11-15T05:16:38.172Z,24.65
2022-11-15T05:19:05.605Z,22.35
2022-11-15T05:21:32.672Z,24.30
2022-11-15T05:23:59.779Z,22.10
2022-11-15T05:26:27.279Z,24.15
2022-11-15T05:28:56.345Z,23.60
2022-11-15T05:31:24.029Z,24.05
2022-11-15T05:33:54.653Z,22.23
2022-11-15T05:36:43.410Z,22.92
2022-11-15T05:39:10.425Z,23.95
2022-11-15T05:41:41.311Z,25.35
2022-11-15T05:44:11.178Z,25.63
2022-11-15T05:46:40.222Z,24.77
2022-11-15T05:49:12.327Z,24.05
2022-11-15T05:51:39.984Z,25.48
2022-11-15T05:54:08.670Z,24.73
2022-11-15T05:56:35.361Z,23.88
2022-11-15T05:59:03.053Z,28.65
2022-11-15T06:01:30.535Z,25.77
2022-11-15T06:03:57.186Z,25.35
2022-11-15T06:06:23.896Z,27.35
2022-11-15T06:08:50.566Z,27.70
2022-11-15T06:11:17.223Z,28.23
2022-11-15T06:13:43.956Z,28.95
2022-11-15T06:16:10.613Z,26.15
2022-11-15T06:18:38.020Z,24.15
2022-11-15T06:21:05.260Z,24.27
2022-11-15T06:23:36.039Z,24.17
2022-11-15T06:26:03.810Z,29.50
2022-11-15T06:28:32.193Z,26.67
2022-11-15T06:31:06.435Z,27.58
2022-11-15T06:33:33.702Z,22.88
2022-11-15T06:36:18.787Z,23.67
2022-11-15T06:38:46.055Z,23.25
2022-11-15T06:41:14.620Z,26.95
2022-11-15T06:43:41.924Z,25.42
2022-11-15T06:46:09.341Z,26.50
2022-11-15T06:48:37.198Z,26.65
2022-11-15T06:51:05.184Z,22.27
2022-11-15T06:53:32.676Z,24.60
2022-11-15T06:56:01.634Z,24.00
2022-11-15T06:58:28.768Z,24.00
2022-11-15T07:01:00.232Z,25.67
2022-11-15T07:03:27.361Z,21.90
2022-11-15T07:05:55.782Z,21.52
2022-11-15T07:08:23.636Z,23.73
2022-11-15T07:10:50.599Z,23.92
2022-11-15T07:13:17.371Z,22.60
2022-11-15T07:15:44.094Z,28.23
2022-11-15T07:18:10.782Z,19.38
2022-11-15T07:20:37.482Z,21.30
2022-11-15T07:23:05.726Z,22.45
2022-11-15T07:25:32.694Z,20.70
2022-11-15T07:28:00.480Z,21.48
2022-11-15T07:30:30.103Z,23.17
2022-11-15T07:33:01.311Z,22.58
2022-11-15T07:35:30.777Z,24.55
2022-11-15T07:38:04.276Z,21.03
2022-11-15T07:40:32.826Z,28.30
2022-11-15T07:43:07.480Z,19.75
2022-11-15T07:45:37.145Z,19.70
2022-11-15T07:48:03.945Z,19.50
2022-11-15T07:50:32.103Z,19.23
2022-11-15T07:53:00.288Z,19.77
2022-11-15T07:55:30.175Z,19.70
2022-11-15T07:58:07.720Z,20.73
2022-11-15T08:00:35.549Z,17.50
2022-11-15T08:03:10.045Z,20.20
2022-11-15T08:05:38.247Z,19.48
2022-11-15T08:08:05.657Z,20.65
2022-11-15T08:10:35.263Z,18.25
2022-11-15T08:13:08.721Z,19.70
2022-11-15T08:15:36.928Z,19.45
2022-11-15T08:18:12.475Z,20.40
2022-11-15T08:20:39.272Z,23.60
2022-11-15T08:23:07.209Z,21.35
2022-11-15T08:25:35.318Z,18.73
2022-11-15T08:28:05.024Z,17.38
2022-11-15T08:30:35.496Z,17.50
2022-11-15T08:33:02.204Z,22.10
2022-11-15T08:35:30.238Z,19.17
2022-11-15T08:37:59.763Z,18.30
2022-11-15T08:40:29.220Z,20.87
2022-11-15T08:42:56.000Z,20.80
2022-11-15T08:45:22.782Z,16.55
2022-11-15T08:47:53.983Z,17.70
2022-11-15T08:50:21.230Z,18.85
2022-11-15T08:52:49.234Z,20.02
2022-11-15T08:55:17.734Z,16.67
2022-11-15T08:57:45.899Z,19.02
2022-11-15T09:00:14.270Z,16.20
2022-11-15T09:02:41.518Z,17.00
2022-11-15T09:05:08.830Z,19.95
2022-11-15T09:07:35.668Z,15.77
2022-11-15T09:10:02.433Z,21.05
2022-11-15T09:12:29.437Z,15.05
2022-11-15T09:14:56.177Z,15.15
2022-11-15T09:20:10.289Z,18.70
2022-11-15T09:22:37.515Z,17.02
2022-11-15T09:25:08.544Z,21.92
2022-11-15T09:27:36.652Z,16.15
2022-11-15T09:30:03.602Z,18.25
2022-11-15T09:32:35.031Z,16.73
2022-11-15T09:35:05.925Z,20.67
2022-11-15T09:37:33.561Z,16.58
2022-11-15T09:40:00.263Z,14.27
2022-11-15T09:42:46.594Z,15.95
2022-11-15T09:45:29.697Z,13.85
2022-11-15T09:48:20.731Z,15.82
2022-11-15T09:50:50.767Z,15.30
2022-11-15T09:56:27.600Z,11.80
2022-11-15T09:59:15.460Z,11.98
2022-11-15T10:01:44.939Z,12.13
2022-11-15T10:04:12.205Z,13.63
2022-11-15T10:06:47.794Z,11.30
2022-11-15T10:09:24.074Z,11.25
2022-11-15T10:11:51.254Z,11.57
2022-11-15T10:14:23.502Z,9.25
2022-11-15T10:17:07.847Z,8.55
2022-11-15T10:20:11.993Z,9.73
2022-11-15T10:23:06.173Z,9.98
2022-11-15T10:25:36.509Z,13.73
2022-11-15T10:30:41.817Z,9.50
2022-11-15T10:33:32.264Z,9.00
2022-11-15T10:38:56.182Z,11.30
2022-11-15T10:41:32.993Z,9.68
2022-11-15T10:44:18.255Z,8.02
2022-11-15T10:46:56.636Z,10.07
2022-11-15T10:49:29.627Z,8.10
2022-11-15T10:52:00.299Z,6.38
2022-11-15T10:54:26.956Z,7.57
2022-11-15T10:56:56.977Z,6.45
2022-11-15T10:59:37.754Z,9.07
2022-11-15T11:02:38.849Z,6.80
2022-11-15T11:05:45.720Z,9.50
2022-11-15T11:08:15.493Z,6.53
2022-11-15T11:11:00.149Z,4.75
2022-11-15T11:13:34.786Z,7.10
2022-11-15T11:16:36.299Z,5.40
2022-11-15T11:19:38.872Z,6.40
2022-11-15T11:22:18.727Z,5.45
2022-11-15T11:24:55.927Z,4.53
2022-11-15T11:27:44.231Z,6.00
2022-11-15T11:30:22.800Z,5.40
2022-11-15T11:32:55.241Z,6.00
2022-11-15T11:35:31.770Z,5.85
2022-11-15T11:38:30.051Z,9.45
2022-11-15T11:41:08.439Z,4.90
2022-11-15T11:44:03.259Z,8.05
2022-11-15T11:46:51.469Z,5.22
2022-11-15T11:49:36.982Z,6.88
2022-11-15T11:52:24.206Z,6.07
2022-11-15T11:55:17.341Z,4.68
2022-11-15T11:58:13.149Z,8.73
2022-11-15T12:00:46.981Z,6.65
2022-11-15T12:03:25.266Z,6.47
2022-11-15T12:05:56.716Z,4.13
2022-11-15T12:08:45.235Z,5.00
2022-11-15T12:11:21.143Z,7.20
2022-11-15T12:13:52.063Z,6.22
2022-11-15T12:16:29.107Z,6.25
2022-11-15T12:19:00.017Z,4.53
2022-11-15T12:21:49.245Z,5.18
2022-11-15T12:24:30.886Z,5.78
2022-11-15T12:27:26.399Z,5.60
2022-11-15T12:29:58.716Z,5.53
2022-11-15T12:32:49.803Z,6.55
2022-11-15T12:35:38.053Z,5.88
2022-11-15T12:38:06.083Z,4.55
2022-11-15T12:40:59.874Z,8.98
2022-11-15T12:43:43.628Z,6.85
2022-11-15T12:46:31.518Z,5.35
2022-11-15T12:49:11.161Z,6.05
2022-11-15T12:51:44.031Z,3.63
2022-11-15T12:54:22.649Z,4.60
2022-11-15T12:57:04.327Z,4.13
2022-11-15T12:59:54.260Z,7.63
2022-11-15T13:02:32.261Z,5.78
2022-11-15T13:05:18.612Z,4.72
2022-11-15T13:07:48.283Z,5.05
2022-11-15T13:10:14.919Z,9.00
2022-11-15T13:12:47.585Z,10.88
2022-11-15T13:15:14.369Z,6.32
2022-11-15T13:17:45.996Z,5.70
2022-11-15T13:20:15.187Z,7.45
2022-11-15T13:22:55.776Z,4.10
2022-11-15T13:25:47.222Z,4.18
2022-11-15T13:28:17.009Z,3.85
2022-11-15T13:30:53.764Z,7.30
2022-11-15T13:33:37.448Z,4.40
2022-11-15T13:36:14.396Z,7.03
2022-11-15T13:38:42.328Z,4.80
2022-11-15T13:41:22.040Z,5.70
2022-11-15T13:43:50.710Z,7.15
2022-11-15T13:46:29.329Z,3.25
2022-11-15T13:49:02.010Z,5.60
2022-11-15T13:51:37.829Z,16.25
2022-11-15T13:54:14.318Z,7.90
2022-11-15T13:57:03.672Z,7.03
2022-11-15T13:59:33.567Z,6.15
2022-11-15T14:02:11.944Z,10.90
2022-11-15T14:04:46.101Z,5.35
2022-11-15T14:07:22.630Z,5.35
2022-11-15T14:09:49.866Z,6.47
2022-11-15T14:12:36.508Z,4.43
2022-11-15T14:15:31.412Z,8.15
2022-11-15T14:17:58.539Z,5.53
2022-11-15T14:20:31.839Z,4.75
2022-11-15T14:23:01.534Z,8.48
2022-11-15T14:25:37.289Z,7.57
2022-11-15T14:28:25.097Z,5.50
2022-11-15T14:30:58.153Z,6.97
2022-11-15T14:33:29.357Z,5.38
2022-11-15T14:35:58.138Z,5.88
2022-11-15T14:38:26.371Z,7.78
2022-11-15T14:40:54.617Z,7.82
2022-11-15T14:43:21.425Z,4.60
2022-11-15T14:45:48.186Z,5.15
2022-11-15T14:48:15.084Z,6.28
2022-11-15T14:50:41.806Z,5.10
2022-11-15T14:53:14.324Z,7.05
2022-11-15T14:55:41.089Z,5.45
2022-11-15T14:58:11.499Z,5.68
2022-11-15T15:03:06.189Z,5.15
2022-11-15T15:05:34.579Z,7.00
2022-11-15T15:08:01.854Z,5.32
2022-11-15T15:10:40.083Z,5.03
2022-11-15T15:13:22.062Z,4.75
2022-11-15T15:15:50.189Z,7.38
2022-11-15T15:18:17.580Z,5.20
2022-11-15T15:20:46.562Z,6.03
2022-11-15T15:23:21.184Z,8.70
2022-11-15T15:25:49.827Z,3.72
2022-11-15T15:28:16.934Z,7.28
2022-11-15T15:30:43.853Z,6.97
2022-11-15T15:33:10.548Z,7.15
2022-11-15T15:35:37.497Z,6.28
2022-11-15T15:38:05.011Z,6.78
2022-11-15T15:40:33.812Z,5.22
2022-11-15T15:43:01.005Z,3.83
2022-11-15T15:45:30.805Z,2.50
2022-11-15T15:47:57.653Z,7.30
2022-11-15T15:50:27.399Z,3.45
2022-11-15T15:52:56.287Z,8.10
2022-11-15T15:55:23.881Z,5.28
2022-11-15T15:57:51.313Z,5.68
2022-11-15T16:00:19.238Z,3.63
2022-11-15T16:02:46.466Z,3.42
2022-11-15T16:05:13.980Z,5.10
2022-11-15T16:07:41.079Z,10.55
2022-11-15T16:10:23.610Z,6.10
2022-11-15T16:12:50.651Z,3.85
2022-11-15T16:15:17.951Z,5.05
2022-11-15T16:17:58.609Z,5.20
2022-11-15T16:20:35.639Z,3.38
2022-11-15T16:23:08.809Z,4.50
2022-11-15T16:25:41.484Z,3.42
2022-11-15T16:28:21.901Z,7.47
2022-11-15T16:33:23.585Z,4.55
2022-11-15T16:35:50.380Z,7.03
2022-11-15T16:38:18.277Z,4.07
2022-11-15T16:40:45.037Z,4.68
2022-11-15T16:43:12.156Z,4.90
2022-11-15T16:45:38.930Z,3.83
2022-11-15T16:48:05.763Z,5.32
2022-11-15T16:50:41.276Z,6.40
2022-11-15T16:53:08.017Z,5.43
2022-11-15T16:55:34.881Z,4.13
2022-11-15T16:58:02.410Z,8.93
2022-11-15T17:00:29.226Z,5.88
2022-11-15T17:02:56.238Z,4.88
2022-11-15T17:05:24.366Z,6.57
2022-11-15T17:07:54.966Z,4.72
2022-11-15T17:10:23.525Z,5.45
2022-11-15T17:12:51.373Z,5.23
2022-11-15T17:15:18.800Z,5.15
2022-11-15T17:17:50.745Z,5.68
2022-11-15T17:20:18.896Z,6.07
2022-11-15T17:22:47.254Z,4.15
2022-11-15T17:25:14.442Z,4.07
2022-11-15T17:27:41.161Z,8.55
2022-11-15T17:30:09.948Z,6.55
2022-11-15T17:32:37.486Z,5.57
2022-11-15T17:35:12.034Z,7.45
2022-11-15T17:37:41.648Z,6.85
2022-11-15T17:40:08.897Z,8.02
2022-11-15T17:42:35.648Z,11.40
2022-11-15T17:45:08.047Z,6.65
2022-11-15T17:47:36.853Z,8.20
2022-11-15T17:50:04.295Z,7.70
2022-11-15T17:52:31.083Z,7.00
2022-11-15T17:54:57.811Z,5.78
2022-11-15T17:57:24.487Z,6.90
2022-11-15T17:59:51.157Z,5.25
2022-11-15T18:02:17.906Z,9.82
2022-11-15T18:04:44.586Z,6.18
2022-11-15T18:07:12.344Z,6.55
2022-11-15T18:09:42.257Z,7.45
2022-11-15T18:12:09.686Z,6.85
2022-11-15T18:14:36.595Z,5.78
2022-11-15T18:17:03.486Z,9.18
2022-11-15T18:19:30.183Z,7.45
2022-11-15T18:21:56.968Z,7.70
2022-11-15T18:24:31.363Z,8.05
2022-11-15T18:26:59.474Z,6.45
2022-11-15T18:29:26.444Z,6.72
2022-11-15T18:31:56.916Z,7.10
2022-11-15T18:34:25.518Z,5.88
2022-11-15T18:36:53.032Z,10.98
2022-11-15T18:39:20.333Z,7.22
2022-11-15T18:41:47.805Z,9.93
2022-11-15T18:44:15.149Z,8.30
2022-11-15T18:46:42.361Z,7.07
2022-11-15T18:49:10.450Z,7.00
2022-11-15T18:51:41.879Z,9.65
2022-11-15T18:54:10.995Z,7.43
2022-11-15T18:56:38.361Z,7.65
2022-11-15T18:59:06.198Z,7.25
2022-11-15T19:01:35.411Z,7.95
2022-11-15T19:04:08.418Z,7.43
2022-11-15T19:06:38.900Z,7.85
2022-11-15T19:09:06.046Z,7.50
2022-11-15T19:11:35.820Z,9.68
2022-11-15T19:14:10.177Z,9.57
2022-11-15T19:16:39.467Z,7.47
2022-11-15T19:19:10.386Z,8.38
2022-11-15T19:21:37.147Z,10.38
2022-11-15T19:24:04.088Z,10.55
2022-11-15T19:26:30.835Z,11.38
2022-11-15T19:28:59.669Z,9.45
2022-11-15T19:31:28.226Z,11.38
2022-11-15T19:33:55.668Z,10.75
2022-11-15T19:36:26.829Z,7.57
2022-11-15T19:38:55.143Z,8.45
2022-11-15T19:41:23.789Z,10.25
2022-11-15T19:43:51.685Z,8.02
2022-11-15T19:46:20.632Z,11.88
2022-11-15T19:48:47.878Z,10.13
2022-11-15T19:51:21.806Z,7.78
2022-11-15T19:53:50.012Z,8.05
2022-11-15T19:56:18.459Z,10.00
2022-11-15T19:58:45.779Z,10.98
2022-11-15T20:01:21.241Z,7.47
2022-11-15T20:03:48.992Z,8.95
2022-11-15T20:06:17.990Z,7.25
2022-11-15T20:08:46.046Z,8.18
2022-11-15T20:11:13.800Z,7.82
2022-11-15T20:13:41.247Z,7.82
2022-11-15T20:16:08.150Z,7.35
2022-11-15T20:18:35.846Z,9.10
2022-11-15T20:21:06.228Z,7.35
2022-11-15T20:23:33.309Z,12.55
2022-11-15T20:26:00.055Z,7.95
2022-11-15T20:28:28.568Z,7.50
2022-11-15T20:30:57.784Z,8.30
2022-11-15T20:33:25.299Z,9.30
2022-11-15T20:35:52.619Z,8.30
2022-11-15T20:38:21.134Z,9.05
2022-11-15T20:40:57.414Z,8.52
2022-11-15T20:43:25.883Z,7.50
2022-11-15T20:45:52.591Z,8.10
2022-11-15T20:48:19.288Z,9.55
2022-11-15T20:50:47.101Z,11.88
2022-11-15T20:53:16.406Z,8.57
2022-11-15T20:55:47.863Z,9.55
2022-11-15T20:58:15.606Z,8.93
2022-11-15T21:00:44.671Z,9.02
2022-11-15T21:03:12.555Z,9.68
2022-11-15T21:05:41.141Z,11.32
2022-11-15T21:08:08.859Z,9.63
2022-11-15T21:10:54.199Z,9.52
2022-11-15T21:13:21.679Z,8.90
2022-11-15T21:15:48.670Z,9.07
2022-11-15T21:18:15.642Z,9.90
2022-11-15T21:20:42.908Z,10.50
2022-11-15T21:23:09.937Z,12.50
2022-11-15T21:25:36.762Z,10.13
2022-11-15T21:28:03.629Z,11.40
2022-11-15T21:30:30.509Z,11.70
2022-11-15T21:32:57.216Z,12.30
2022-11-15T21:35:24.054Z,11.32
2022-11-15T21:37:56.371Z,10.27
2022-11-15T21:40:24.022Z,11.70
2022-11-15T21:42:50.891Z,12.18
2022-11-15T21:45:17.614Z,11.32
2022-11-15T21:47:46.380Z,12.07
2022-11-15T21:50:13.891Z,12.27
2022-11-15T21:52:41.008Z,12.90
2022-11-15T21:55:08.886Z,11.35
2022-11-15T21:57:35.599Z,11.10
2022-11-15T22:00:21.117Z,14.68
2022-11-15T22:02:47.803Z,12.98
2022-11-15T22:05:14.762Z,12.63
2022-11-15T22:07:41.424Z,11.52
2022-11-15T22:10:08.494Z,12.75
2022-11-15T22:12:35.161Z,12.63
2022-11-15T22:15:01.879Z,11.35
2022-11-15T22:17:48.521Z,10.77
2022-11-15T22:20:44.688Z,10.10
2022-11-15T22:23:02.504Z,10.40
2022-11-15T22:25:29.927Z,11.05
2022-11-15T22:27:57.010Z,10.73
2022-11-15T22:30:24.586Z,11.55
2022-11-15T22:32:51.279Z,10.63
2022-11-15T22:35:17.949Z,11.93
2022-11-15T22:37:44.616Z,11.27
2022-11-15T22:40:11.434Z,10.77
2022-11-15T22:42:38.123Z,12.02
2022-11-15T22:45:05.205Z,11.75
2022-11-15T22:47:31.933Z,11.82
2022-11-15T22:49:58.616Z,11.25
2022-11-15T22:52:25.268Z,18.70
2022-11-15T22:54:51.984Z,11.20
2022-11-15T22:57:18.649Z,11.60
2022-11-15T22:59:45.883Z,14.05
2022-11-15T23:02:12.544Z,10.07
2022-11-15T23:04:39.326Z,10.57
2022-11-15T23:07:06.158Z,11.60
2022-11-15T23:09:32.912Z,11.00
2022-11-15T23:12:18.122Z,11.82
2022-11-15T23:14:44.840Z,10.98
2022-11-15T23:17:11.509Z,11.40
2022-11-15T23:19:38.196Z,12.10
2022-11-15T23:22:23.302Z,10.40
2022-11-15T23:24:51.648Z,12.52
2022-11-15T23:27:20.052Z,10.98
2022-11-15T23:30:05.918Z,14.15
2022-11-15T23:32:51.166Z,13.15
2022-11-15T23:35:17.861Z,14.38
2022-11-15T23:37:44.546Z,12.05
2022-11-15T23:40:12.061Z,10.93
2022-11-15T23:42:38.770Z,14.52
2022-11-15T23:45:06.339Z,11.68
2022-11-15T23:47:33.091Z,12.48
2022-11-15T23:49:59.764Z,12.63
2022-11-15T23:52:26.497Z,15.00
2022-11-15T23:54:53.226Z,14.02
2022-11-15T23:57:20.040Z,11.95
2022-11-15T23:59:47.671Z,13.50
